LTQ weather

Le Touquet-Côte d'Opale Airport
Le Touquet-Paris-Plage, Nord-Pas-de-Calais, France

Public forecast

Using degrees Celsius for public forecast. Weather courtesy of forecast.io.

METAR (pilot weather report)

Retrieved 2019/06/16 17:30 UTC (27 minutes ago):

LFAT 161730Z AUTO 27005KT 230V310 9999 BKN037 OVC043 17/12 Q1020 NOSIG

TAF (pilot weather forecast)

Forecast is more than 12 hours old.

Retrieved 2018/07/14 09:21 UTC (11 months ago):

TAF TAF LFAT 140800Z 1409/1421 09004KT 8000 NSC BECMG 1409/1411 30010KT